Weather History for Kendall, FL

Change the Weather History Date:

Friday, February 15, 2013

  Actual Average Record
Temperature  
Mean Temperature 68 °F -  
Max Temperature 73 °F 79 °F 86 °F (1997)
Min Temperature 62 °F 59 °F 48 °F (1993)
Cooling Degree Days 2    
Growing Degree Days 18 (Base 50)    
Moisture  
Dew Point 65 °F    
Average Humidity 95    
Maximum Humidity 100    
Minimum Humidity 78    
Precipitation  
Precipitation 0.82 in - - ()
Sea Level Pressure  
Sea Level Pressure 29.99 in    
Wind  
Wind Speed 7 mph (NNE)    
Max Wind Speed 14 mph    
Max Gust Speed -    
Visibility 9 miles    
Events Rain    
Averages and records for this station are not official NWS values.
T = Trace of Precipitation, MM = Missing Value Source: NWS Daily Summary

Daily Weather History Graph

Daily Weather History Graph

Search for Another Location

Airport:

Trip Planner

Search our weather history database for the weather conditions in past years. The results will help you decide how hot, cold, wet, or windy it might be!

Date:

Astronomy

Feb. 15, 2013 Rise Set
Actual Time 6:56 AM EST 6:15 PM EST
Civil Twilight 6:33 AM EST 6:38 PM EST
Nautical Twilight 6:06 AM EST 7:05 PM EST
Astronomical Twilight 5:39 AM EST 7:32 PM EST
Moon 10:10 AM EST (2/15) 11:33 PM EST (2/15)
Length of Visible Light 12h 05m
Length of Day
11h 18m
Waxing Crescent, 30% of the Moon is Illuminated
Feb 15
Waxing Crescent
Feb 17
First Quarter
Feb 25
Full
Mar 4
Last Quarter
Mar 11
New

Hourly Weather History & Observations

Time (EST) Temp. Dew Point Humidity Pressure Visibility Wind Dir Wind Speed Gust Speed Precip Events Conditions
12:15 AM 62.6 °F 62.6 °F 100% 30.02 in 10.0 mi NE 6.9 mph - 0.00 in Rain Light Rain
12:53 AM 63.0 °F 62.1 °F 97% 30.01 in 10.0 mi North 6.9 mph - 0.01 in Rain Light Rain
1:41 AM 64.4 °F 62.6 °F 94% 30.00 in 10.0 mi North 5.8 mph - 0.01 in Rain Light Rain
1:53 AM 63.0 °F 62.1 °F 97% 30.00 in 5.0 mi NE 8.1 mph - 0.03 in Rain Rain
2:01 AM 62.6 °F 62.6 °F 100% 29.99 in 6.0 mi WNW 5.8 mph - 0.01 in Rain Light Rain
2:08 AM 62.6 °F 62.6 °F 100% 29.99 in 8.0 mi NE 4.6 mph - 0.01 in Rain Light Rain
2:53 AM 64.9 °F 62.1 °F 90% 29.99 in 10.0 mi Variable 4.6 mph - 0.02 in Rain Light Rain
3:01 AM 64.4 °F 62.6 °F 94% 29.98 in 8.0 mi North 4.6 mph - 0.00 in Rain Light Rain
3:09 AM 64.4 °F 62.6 °F 94% 29.98 in 5.0 mi NNE 6.9 mph - 0.01 in Rain Light Rain
3:31 AM 64.4 °F 62.6 °F 94% 29.97 in 10.0 mi North 3.5 mph - 0.02 in Rain Light Rain
3:53 AM 64.0 °F 63.0 °F 96% 29.97 in 10.0 mi NNE 4.6 mph - 0.02 in Rain Light Rain
4:16 AM 64.4 °F 64.4 °F 100% 29.96 in 10.0 mi NE 3.5 mph - 0.00 in   Overcast
4:53 AM 64.9 °F 64.0 °F 97% 29.97 in 10.0 mi NNE 3.5 mph - 0.00 in   Overcast
5:42 AM 64.4 °F 64.4 °F 100% 29.97 in 10.0 mi North 6.9 mph - 0.01 in Rain Light Rain
5:53 AM 66.0 °F 64.0 °F 93% 29.98 in 10.0 mi NNE 5.8 mph - 0.01 in   Overcast
6:51 AM 66.2 °F 64.4 °F 94% 29.99 in 10.0 mi NE 4.6 mph - 0.00 in   Overcast
6:53 AM 66.0 °F 64.9 °F 96% 29.99 in 10.0 mi NNE 4.6 mph - 0.00 in   Overcast
7:35 AM 66.2 °F 66.2 °F 100% 30.00 in 8.0 mi NNE 5.8 mph - 0.01 in   Overcast
7:53 AM 66.9 °F 66.0 °F 97% 30.00 in 10.0 mi NE 5.8 mph - 0.01 in   Overcast
8:00 AM 68.0 °F 66.2 °F 94% 30.01 in 10.0 mi NNE 5.8 mph - N/A   Overcast
8:11 AM 68.0 °F 66.2 °F 94% 30.02 in 10.0 mi NNE 4.6 mph - N/A   Overcast
8:32 AM 69.8 °F 66.2 °F 88% 30.02 in 10.0 mi NE 6.9 mph - N/A   Overcast
8:53 AM 69.1 °F 66.9 °F 93% 30.02 in 10.0 mi ENE 5.8 mph - N/A   Overcast
9:06 AM 69.8 °F 68.0 °F 94% 30.02 in 10.0 mi ENE 8.1 mph - N/A   Overcast
9:22 AM 69.8 °F 68.0 °F 94% 30.02 in 10.0 mi East 9.2 mph - N/A   Mostly Cloudy
9:49 AM 71.6 °F 68.0 °F 88% 30.02 in 10.0 mi East 11.5 mph - N/A   Mostly Cloudy
9:53 AM 72.0 °F 68.0 °F 87% 30.02 in 10.0 mi ENE 10.4 mph - N/A   Mostly Cloudy
10:53 AM 73.9 °F 66.9 °F 79% 30.01 in 10.0 mi ESE 9.2 mph - N/A   Mostly Cloudy
11:31 AM 73.4 °F 66.2 °F 78% 30.02 in 10.0 mi ESE 4.6 mph - N/A   Overcast
11:53 AM 73.9 °F 66.9 °F 79% 30.01 in 10.0 mi East 6.9 mph - 0.00 in Rain Light Rain
12:53 PM 70.0 °F 68.0 °F 93% 30.00 in 10.0 mi NNW 9.2 mph - 0.00 in Rain Light Rain
1:53 PM 69.8 °F 66.2 °F 88% 29.97 in 4.0 mi North 12.7 mph - N/A Rain Light Rain
2:05 PM 69.8 °F 68.0 °F 94% 29.97 in 1.0 mi North 11.5 mph - 0.03 in Rain Light Rain
2:46 PM 66.2 °F 66.2 °F 100% 29.98 in 2.0 mi North 10.4 mph - 0.40 in Rain Heavy Rain
2:53 PM 66.9 °F 66.0 °F 97% 29.97 in 2.5 mi North 9.2 mph - 0.44 in Rain Heavy Rain
3:08 PM 66.2 °F 66.2 °F 100% 29.97 in 3.0 mi North 13.8 mph - 0.03 in Rain Light Rain
3:15 PM 66.2 °F 66.2 °F 100% 29.98 in 6.0 mi NNW 10.4 mph - 0.04 in Rain Light Rain
3:53 PM 68.0 °F 66.0 °F 93% 29.96 in 10.0 mi North 10.4 mph - 0.10 in Rain Light Rain
4:00 PM 68.0 °F 66.2 °F 94% 29.96 in 10.0 mi North 9.2 mph - 0.00 in   Overcast
4:21 PM 68.0 °F 66.2 °F 94% 29.97 in 10.0 mi North 9.2 mph - 0.00 in   Overcast
4:44 PM 68.0 °F 66.2 °F 94% 29.97 in 10.0 mi North 10.4 mph - 0.00 in   Overcast
4:53 PM 68.0 °F 66.0 °F 93% 29.97 in 10.0 mi North 10.4 mph - 0.01 in Rain Light Rain
5:36 PM 68.0 °F 66.2 °F 94% 29.96 in 10.0 mi North 4.6 mph - 0.00 in Rain Light Rain
5:53 PM 66.9 °F 66.0 °F 97% 29.96 in 10.0 mi North 8.1 mph - 0.01 in   Overcast
6:13 PM 66.2 °F 66.2 °F 100% 29.96 in 10.0 mi NNW 5.8 mph - 0.00 in Rain Light Rain
6:24 PM 66.2 °F 64.4 °F 94% 29.96 in 10.0 mi North 6.9 mph - 0.00 in Rain Light Rain
6:53 PM 66.0 °F 64.0 °F 93% 29.96 in 10.0 mi NNE 5.8 mph - 0.01 in Rain Light Rain
7:53 PM 64.9 °F 64.0 °F 97% 29.99 in 4.0 mi East 5.8 mph - 0.08 in Rain Rain
8:53 PM 64.9 °F 64.0 °F 97% 29.97 in 10.0 mi East 4.6 mph - 0.07 in Rain Light Rain
9:24 PM 64.4 °F 64.4 °F 100% 29.97 in 10.0 mi East 3.5 mph - 0.00 in   Overcast
9:32 PM 64.4 °F 64.4 °F 100% 29.97 in 10.0 mi East 3.5 mph - 0.00 in   Mostly Cloudy
9:39 PM 64.4 °F 64.4 °F 100% 29.97 in 10.0 mi East 3.5 mph - 0.00 in   Mostly Cloudy
9:53 PM 64.9 °F 64.0 °F 97% 29.97 in 10.0 mi East 3.5 mph - 0.00 in   Mostly Cloudy
10:35 PM 64.4 °F 64.4 °F 100% 29.99 in 9.0 mi NW 3.5 mph - N/A   Overcast
10:53 PM 66.0 °F 64.9 °F 96% 29.99 in 8.0 mi WNW 4.6 mph - N/A   Overcast
11:34 PM 66.2 °F 64.4 °F 94% 29.97 in 7.0 mi WNW 3.5 mph - N/A   Overcast
11:53 PM 66.0 °F 64.9 °F 96% 29.97 in 6.0 mi WNW 4.6 mph - 0.00 in   Overcast